Zürich, Switzerland

8:23 AM CET op 21 februari 2017 (GMT +0100)
Susenbergstrasse | | Change Station

Hoogte 2014 ft 47.38 °N, 8.56 °E | Updated 1 minute ago

Merendeels bewolkt
Merendeels bewolkt
46.4 °F
Voelt als 46 °F
N
1.2
Wind Variabel Wind van NNO
Gusts 3.1 mijl/u

Vandaag
Hoog -- | Laag -- °F
--% Kans op neerslag
Gisteren
Hoog -- | Laag -- °F
Precip. -- inches
Druk 30.15 inches
Zicht 6.2 mijlen
Wolken Merendeels bewolkt 3200 ft
Geheel bewolkt 4000 ft
Gevoelstemperatuur 46 °F
Dauwpunt 42 °F
Vochtigheid 83%
Neerslag 0.00 inches
Dikte sneeuw Niet beschikbaar.
7:20 AM 5:58 PM
Afnemende halvemaan, 27% visible
METAR LSMD 210650Z 13004KT 100V160 9999 BKN032 OVC040 07/04 Q1021 RMK BLU
Druk 30.15 inches
Zicht 6.2 mijlen
Wolken Merendeels bewolkt 3200 ft
Geheel bewolkt 4000 ft
Gevoelstemperatuur 46 °F
Dauwpunt 42 °F
Vochtigheid 83%
Neerslag 0.00 inches
Dikte sneeuw Niet beschikbaar.
7:20 AM 5:58 PM
Afnemende halvemaan, 27% visible
METAR LSMD 210650Z 13004KT 100V160 9999 BKN032 OVC040 07/04 Q1021 RMK BLU

Get Your Daily Forecast Email!

Thanks for signing up!

Be on the lookout for a verification email in your inbox.

You'll start receiving the daily forecast at 8 AM.

×

10-Day Weather Forecast

×

Almanac

Astronomie

Feb. 21, 2017 Opkomst Ondergang
Werkelijke tijd
Burgerlijke schemering
Nautische schemering
Astronomische schemering
Maan
Golflengte van het zichtbare licht
Daglengte
Tomorrow will be .
, % of the Moon is Illuminated

Extremen vandaag

Country Highs Country Lows

Community

WunderPhotos

Upload Photos

1,962,540 foto’s ge-upload!

WunderBlog® & News

Nearby

Luchtkwaliteit

  Luchtkwaliteit LK-index Verontreinigende stof
Not available.

Dikte sneeuw

Station Depth Geometrische hoogte

Aardbevingen

Stad Distance Mag. Time & Date
Minimum magnitude displayed is 2.5.

Watertemperatuur langs de kust

Plaats Temperatuur

Stations

Nabije weerstations

Locatie station Temp. Gevoelstemperatuur Dauwpunt Vochtigheid Wind Precip. Hoogte Geactualiseerd Type